createdAt,value
2023-11-08T00:00:14.548Z,7.80
2023-11-08T00:02:41.741Z,7.78
2023-11-08T00:05:08.871Z,7.81
2023-11-08T00:07:41.230Z,7.82
2023-11-08T00:10:13.686Z,7.82
2023-11-08T00:12:40.842Z,7.81
2023-11-08T00:15:10.562Z,7.85
2023-11-08T00:17:37.499Z,7.87
2023-11-08T00:20:09.403Z,7.88
2023-11-08T00:22:40.829Z,7.90
2023-11-08T00:25:07.728Z,7.93
2023-11-08T00:27:39.445Z,7.94
2023-11-08T00:30:06.796Z,7.95
2023-11-08T00:32:33.371Z,7.94
2023-11-08T00:35:03.085Z,7.94
2023-11-08T00:37:32.380Z,7.91
2023-11-08T00:39:59.295Z,7.91
2023-11-08T00:42:30.624Z,7.91
2023-11-08T00:44:59.390Z,7.89
2023-11-08T00:47:25.972Z,7.88
2023-11-08T00:49:55.073Z,7.88
2023-11-08T00:52:24.463Z,7.90
2023-11-08T00:54:55.076Z,7.95
2023-11-08T00:57:22.172Z,7.98
2023-11-08T00:59:48.687Z,8.02
2023-11-08T01:02:15.248Z,8.03
2023-11-08T01:04:42.950Z,8.02
2023-11-08T01:07:10.943Z,8.01
2023-11-08T01:09:39.847Z,7.98
2023-11-08T01:12:09.205Z,7.96
2023-11-08T01:14:35.817Z,7.95
2023-11-08T01:17:05.186Z,7.95
2023-11-08T01:19:32.429Z,7.94
2023-11-08T01:22:01.213Z,7.95
2023-11-08T01:24:30.260Z,7.95
2023-11-08T01:26:56.954Z,7.95
2023-11-08T01:29:23.644Z,7.95
2023-11-08T01:31:52.450Z,7.96
2023-11-08T01:34:22.001Z,7.94
2023-11-08T01:36:50.781Z,7.94
2023-11-08T01:39:19.860Z,7.94
2023-11-08T01:41:49.818Z,7.92
2023-11-08T01:44:20.335Z,7.92
2023-11-08T01:46:57.266Z,7.93
2023-11-08T01:49:29.467Z,7.92
2023-11-08T01:52:01.398Z,7.93
2023-11-08T01:54:29.101Z,7.93
2023-11-08T01:56:56.358Z,7.94
2023-11-08T01:59:27.194Z,7.96
2023-11-08T02:02:00.450Z,7.97
2023-11-08T02:04:35.486Z,7.98
2023-11-08T02:07:03.047Z,7.98
2023-11-08T02:09:31.042Z,7.97
2023-11-08T02:12:02.458Z,7.92
2023-11-08T02:14:29.733Z,7.89
2023-11-08T02:16:56.409Z,7.85
2023-11-08T02:19:23.251Z,7.82
2023-11-08T02:21:52.939Z,7.79
2023-11-08T02:24:25.211Z,7.79
2023-11-08T02:26:57.048Z,7.79
2023-11-08T02:29:23.584Z,7.78
2023-11-08T02:31:54.913Z,7.76
2023-11-08T02:34:21.648Z,7.80
2023-11-08T02:36:50.149Z,7.81
2023-11-08T02:39:21.660Z,7.83
2023-11-08T02:41:49.254Z,7.84
2023-11-08T02:44:19.819Z,7.87
2023-11-08T02:46:46.334Z,7.88
2023-11-08T02:49:12.877Z,7.92
2023-11-08T02:51:39.917Z,7.95
2023-11-08T02:54:09.437Z,7.98
2023-11-08T02:56:41.343Z,7.98
2023-11-08T02:59:09.416Z,7.98
2023-11-08T03:01:40.913Z,8.00
2023-11-08T03:04:12.747Z,7.99
2023-11-08T03:06:43.156Z,7.99
2023-11-08T03:09:09.705Z,7.99
2023-11-08T03:11:39.170Z,7.98
2023-11-08T03:14:08.177Z,7.99
2023-11-08T03:16:39.957Z,8.00
2023-11-08T03:19:11.022Z,8.00
2023-11-08T03:21:38.615Z,8.00
2023-11-08T03:24:07.689Z,7.99
2023-11-08T03:26:34.463Z,7.99
2023-11-08T03:29:03.332Z,7.98
2023-11-08T03:31:32.462Z,8.00
2023-11-08T03:33:59.889Z,7.99
2023-11-08T03:36:27.365Z,7.99
2023-11-08T03:38:56.193Z,7.98
2023-11-08T03:41:26.241Z,7.95
2023-11-08T03:43:53.448Z,7.93
2023-11-08T03:46:19.943Z,7.89
2023-11-08T03:48:47.984Z,7.83
2023-11-08T03:51:14.631Z,7.75
2023-11-08T03:53:41.132Z,7.70
2023-11-08T03:56:07.729Z,7.64
2023-11-08T03:58:34.255Z,7.65
2023-11-08T04:01:00.837Z,7.68
2023-11-08T04:03:27.538Z,7.70
2023-11-08T04:05:55.428Z,7.71
2023-11-08T04:08:24.351Z,7.74
2023-11-08T04:10:51.419Z,7.74
2023-11-08T04:13:20.928Z,7.76
2023-11-08T04:15:47.643Z,7.77
2023-11-08T04:18:16.497Z,7.78
2023-11-08T04:20:48.469Z,7.78
2023-11-08T04:23:15.094Z,7.79
2023-11-08T04:25:41.629Z,7.78
2023-11-08T04:28:10.685Z,7.79
2023-11-08T04:30:37.207Z,7.80
2023-11-08T04:33:04.170Z,7.80
2023-11-08T04:35:30.742Z,7.80
2023-11-08T04:38:01.313Z,7.81
2023-11-08T04:40:32.062Z,7.79
2023-11-08T04:42:58.578Z,7.77
2023-11-08T04:45:25.191Z,7.75
2023-11-08T04:47:52.071Z,7.73
2023-11-08T04:50:18.592Z,7.68
2023-11-08T04:52:45.263Z,7.63
2023-11-08T04:55:14.176Z,7.59
2023-11-08T04:57:45.750Z,7.54
2023-11-08T05:00:12.849Z,7.48
2023-11-08T05:02:39.409Z,7.44
2023-11-08T05:05:10.290Z,7.41
2023-11-08T05:07:37.218Z,7.38
2023-11-08T05:10:09.073Z,7.39
2023-11-08T05:12:38.243Z,7.36
2023-11-08T05:15:10.540Z,7.36
2023-11-08T05:17:41.060Z,7.36
2023-11-08T05:20:08.196Z,7.33
2023-11-08T05:22:35.671Z,7.32
2023-11-08T05:25:02.407Z,7.30
2023-11-08T05:27:31.748Z,7.27
2023-11-08T05:29:58.247Z,7.28
2023-11-08T05:32:27.458Z,7.29
2023-11-08T05:34:58.900Z,7.28
2023-11-08T05:37:25.407Z,7.26
2023-11-08T05:39:54.483Z,7.27
2023-11-08T05:42:24.845Z,7.26
2023-11-08T05:44:59.240Z,7.25
2023-11-08T05:47:28.291Z,7.25
2023-11-08T05:50:01.377Z,7.25
2023-11-08T05:52:28.444Z,7.20
2023-11-08T05:54:55.682Z,7.15
2023-11-08T05:57:22.299Z,7.09
2023-11-08T05:59:52.431Z,7.05
2023-11-08T06:02:18.924Z,7.01
2023-11-08T06:04:45.844Z,6.97
2023-11-08T06:07:17.825Z,6.95
2023-11-08T06:09:46.698Z,6.95
2023-11-08T06:12:13.241Z,6.94
2023-11-08T06:14:40.088Z,6.93
2023-11-08T06:17:07.690Z,6.91
2023-11-08T06:19:36.855Z,6.89
2023-11-08T06:22:06.029Z,6.89
2023-11-08T06:24:32.704Z,6.90
2023-11-08T06:27:01.779Z,6.90
2023-11-08T06:29:28.662Z,6.88
2023-11-08T06:31:57.564Z,6.87
2023-11-08T06:34:25.426Z,6.85
2023-11-08T06:36:54.029Z,6.82
2023-11-08T06:39:20.532Z,6.81
2023-11-08T06:41:49.305Z,6.79
2023-11-08T06:44:18.280Z,6.76
2023-11-08T06:46:47.028Z,6.74
2023-11-08T06:49:16.132Z,6.74
2023-11-08T06:51:42.713Z,6.71
2023-11-08T06:54:11.898Z,6.68
2023-11-08T06:56:38.461Z,6.68
2023-11-08T06:59:05.265Z,6.69
2023-11-08T07:01:36.691Z,6.71
2023-11-08T07:04:06.348Z,6.71
2023-11-08T07:06:33.239Z,6.72
2023-11-08T07:09:02.420Z,6.73
2023-11-08T07:11:29.015Z,6.73
2023-11-08T07:13:56.171Z,6.73
2023-11-08T07:16:22.739Z,6.73
2023-11-08T07:18:49.448Z,6.75
2023-11-08T07:21:20.013Z,6.77
2023-11-08T07:23:46.909Z,6.79
2023-11-08T07:26:17.375Z,6.81
2023-11-08T07:28:45.629Z,6.84
2023-11-08T07:31:13.025Z,6.87
2023-11-08T07:33:39.663Z,6.94
2023-11-08T07:36:06.929Z,7.00
2023-11-08T07:38:33.958Z,7.06
2023-11-08T07:41:02.710Z,7.11
2023-11-08T07:43:40.244Z,7.14
2023-11-08T07:46:12.581Z,7.30
2023-11-08T07:48:41.979Z,7.59
2023-11-08T07:51:09.487Z,7.78
2023-11-08T07:53:36.645Z,7.85
2023-11-08T07:56:06.852Z,8.05
2023-11-08T07:58:33.488Z,8.25
2023-11-08T08:01:00.136Z,8.33
2023-11-08T08:03:31.291Z,8.35
2023-11-08T08:05:58.837Z,8.18
2023-11-08T08:08:26.313Z,8.31
2023-11-08T08:10:52.810Z,8.15
2023-11-08T08:13:32.713Z,8.13
2023-11-08T08:15:59.916Z,8.28
2023-11-08T08:18:26.656Z,8.50
2023-11-08T08:20:55.572Z,8.58
2023-11-08T08:23:24.367Z,8.54
2023-11-08T08:25:52.290Z,8.55
2023-11-08T08:28:19.648Z,8.73
2023-11-08T08:30:46.214Z,8.82
2023-11-08T08:33:12.988Z,8.93
2023-11-08T08:35:44.266Z,9.05
2023-11-08T08:38:13.089Z,9.11
2023-11-08T08:40:39.753Z,9.25
2023-11-08T08:43:06.528Z,9.49
2023-11-08T08:45:35.464Z,9.63
2023-11-08T08:48:05.618Z,9.74
2023-11-08T08:50:34.591Z,9.66
2023-11-08T08:53:04.544Z,9.35
2023-11-08T08:55:33.744Z,8.88
2023-11-08T08:58:00.349Z,8.63
2023-11-08T09:00:27.020Z,8.46
2023-11-08T09:02:58.152Z,8.37
2023-11-08T09:05:30.620Z,8.34
2023-11-08T09:07:59.484Z,8.32
2023-11-08T09:10:28.362Z,8.42
2023-11-08T09:12:54.913Z,8.74
2023-11-08T09:15:21.474Z,9.09
2023-11-08T09:17:48.073Z,9.20
2023-11-08T09:20:14.829Z,9.23
2023-11-08T09:22:45.166Z,9.30
2023-11-08T09:25:11.838Z,9.52
2023-11-08T09:27:41.416Z,9.96
2023-11-08T09:30:10.690Z,10.10
2023-11-08T09:32:39.766Z,10.11
2023-11-08T09:35:07.428Z,10.27
2023-11-08T09:37:34.131Z,10.10
2023-11-08T09:40:05.644Z,9.86
2023-11-08T09:42:33.615Z,9.79
2023-11-08T09:45:01.589Z,9.93
2023-11-08T09:47:28.499Z,9.98
2023-11-08T09:50:01.929Z,10.00
2023-11-08T09:52:28.581Z,9.97
2023-11-08T09:55:00.062Z,10.00
2023-11-08T09:57:30.083Z,10.01
2023-11-08T09:59:59.375Z,9.99
2023-11-08T10:02:31.214Z,9.85
2023-11-08T10:05:04.985Z,9.69
2023-11-08T10:07:34.599Z,9.57
2023-11-08T10:10:04.407Z,9.50
2023-11-08T10:12:33.885Z,9.47
2023-11-08T10:15:08.335Z,9.38
2023-11-08T10:19:31.265Z,9.37
2023-11-08T10:20:35.514Z,9.45
2023-11-08T10:23:03.304Z,9.49
2023-11-08T10:25:32.944Z,9.56
2023-11-08T10:28:07.573Z,9.58
2023-11-08T10:30:40.474Z,9.56
2023-11-08T10:33:11.328Z,9.58
2023-11-08T10:35:43.581Z,9.59
2023-11-08T10:38:15.752Z,9.52
2023-11-08T10:40:46.046Z,9.47
2023-11-08T10:43:12.527Z,9.44
2023-11-08T10:45:39.236Z,9.43
2023-11-08T10:48:09.930Z,9.45
2023-11-08T10:50:37.298Z,9.50
2023-11-08T10:53:06.346Z,9.61
2023-11-08T10:55:32.894Z,9.79
2023-11-08T10:58:05.503Z,9.89
2023-11-08T11:00:36.393Z,9.95
2023-11-08T11:03:10.162Z,9.94
2023-11-08T11:05:38.457Z,10.02
2023-11-08T11:08:08.353Z,10.02
2023-11-08T11:10:34.919Z,9.90
2023-11-08T11:13:10.576Z,9.85
2023-11-08T11:16:00.041Z,9.88
2023-11-08T11:18:43.606Z,9.81
2023-11-08T11:21:20.982Z,9.83
2023-11-08T11:23:49.928Z,9.86
2023-11-08T11:26:47.201Z,10.00
2023-11-08T11:29:18.180Z,10.12
2023-11-08T11:31:44.985Z,10.18
2023-11-08T11:34:20.823Z,10.26
2023-11-08T11:37:02.666Z,10.38
2023-11-08T11:39:33.119Z,10.40
2023-11-08T11:42:02.549Z,10.43
2023-11-08T11:44:48.471Z,10.43
2023-11-08T11:47:18.413Z,10.44
2023-11-08T11:49:47.626Z,10.37
2023-11-08T11:52:19.811Z,10.35
2023-11-08T11:54:50.205Z,10.40
2023-11-08T11:57:20.474Z,10.41
2023-11-08T11:59:53.815Z,10.33
2023-11-08T12:02:20.753Z,10.26
2023-11-08T12:04:53.027Z,10.17
2023-11-08T12:07:20.161Z,10.11
2023-11-08T12:09:54.201Z,10.08
2023-11-08T12:12:26.984Z,10.05
2023-11-08T12:14:58.781Z,10.07
2023-11-08T12:17:27.794Z,10.14
2023-11-08T12:19:57.789Z,10.14
2023-11-08T12:22:24.421Z,10.15
2023-11-08T12:24:59.487Z,10.17
2023-11-08T12:27:26.052Z,10.11
2023-11-08T12:29:55.638Z,10.09
2023-11-08T12:32:22.208Z,10.08
2023-11-08T12:34:51.141Z,10.09
2023-11-08T12:37:23.497Z,10.10
2023-11-08T12:39:50.058Z,10.11
2023-11-08T12:42:17.019Z,10.10
2023-11-08T12:44:48.260Z,10.10
2023-11-08T12:47:17.602Z,10.06
2023-11-08T12:49:45.447Z,10.05
2023-11-08T12:52:17.846Z,10.08
2023-11-08T12:54:45.091Z,10.09
2023-11-08T12:57:26.932Z,10.07
2023-11-08T12:59:53.490Z,10.05
2023-11-08T13:02:21.529Z,10.00
2023-11-08T13:04:49.183Z,9.95
2023-11-08T13:07:16.085Z,9.94
2023-11-08T13:09:45.363Z,9.90
2023-11-08T13:12:19.103Z,9.85
2023-11-08T13:14:49.115Z,9.82
2023-11-08T13:17:15.644Z,9.82
2023-11-08T13:19:42.328Z,9.79
2023-11-08T13:22:09.163Z,9.79
2023-11-08T13:24:38.067Z,9.75
2023-11-08T13:27:07.806Z,9.74
2023-11-08T13:29:35.248Z,9.79
2023-11-08T13:32:04.702Z,9.80
2023-11-08T13:34:31.465Z,9.82
2023-11-08T13:37:00.162Z,9.83
2023-11-08T13:39:29.251Z,9.86
2023-11-08T13:41:55.947Z,9.86
2023-11-08T13:44:26.866Z,9.83
2023-11-08T13:46:53.380Z,9.82
2023-11-08T13:49:19.920Z,9.78
2023-11-08T13:51:46.491Z,9.74
2023-11-08T13:54:15.817Z,9.71
2023-11-08T13:56:46.174Z,9.70
2023-11-08T13:59:12.751Z,9.71
2023-11-08T14:01:39.222Z,9.69
2023-11-08T14:04:06.018Z,9.68
2023-11-08T14:06:35.763Z,9.65
2023-11-08T14:09:05.556Z,9.61
2023-11-08T14:11:32.204Z,9.58
2023-11-08T14:13:58.751Z,9.56
2023-11-08T14:16:30.320Z,9.53
2023-11-08T14:18:58.899Z,9.53
2023-11-08T14:21:30.271Z,9.53
2023-11-08T14:23:59.182Z,9.56
2023-11-08T14:26:26.834Z,9.54
2023-11-08T14:28:55.996Z,9.52
2023-11-08T14:31:27.826Z,9.48
2023-11-08T14:33:56.802Z,9.48
2023-11-08T14:36:25.611Z,9.48
2023-11-08T14:38:54.220Z,9.49
2023-11-08T14:41:20.942Z,9.48
2023-11-08T14:43:47.469Z,9.49
2023-11-08T14:46:16.436Z,9.47
2023-11-08T14:48:43.219Z,9.45
2023-11-08T14:51:12.613Z,9.47
2023-11-08T14:53:41.502Z,9.45
2023-11-08T14:56:09.469Z,9.43
2023-11-08T14:58:36.203Z,9.41
2023-11-08T15:01:05.426Z,9.38
2023-11-08T15:03:34.660Z,9.37
2023-11-08T15:06:01.415Z,9.34
2023-11-08T15:09:50.197Z,9.31
2023-11-08T15:11:14.957Z,9.26
2023-11-08T15:13:44.667Z,9.18
2023-11-08T15:16:11.267Z,9.12
2023-11-08T15:18:42.932Z,9.05
2023-11-08T15:21:09.689Z,8.99
2023-11-08T15:23:36.771Z,8.94
2023-11-08T15:26:05.959Z,8.86
2023-11-08T15:28:32.643Z,8.82
2023-11-08T15:31:01.771Z,8.76
2023-11-08T15:33:28.283Z,8.71
2023-11-08T15:35:54.858Z,8.71
2023-11-08T15:38:23.858Z,8.68
2023-11-08T15:40:52.873Z,8.67
2023-11-08T15:43:25.102Z,8.68
2023-11-08T15:45:54.844Z,8.67
2023-11-08T15:48:26.466Z,8.67
2023-11-08T15:50:55.483Z,8.67
2023-11-08T15:53:22.057Z,8.66
2023-11-08T15:55:51.072Z,8.65
2023-11-08T15:58:17.672Z,8.66
2023-11-08T16:00:47.821Z,8.66
2023-11-08T16:03:14.800Z,8.66
2023-11-08T16:05:41.801Z,8.64
2023-11-08T16:08:09.621Z,8.63
2023-11-08T16:10:36.395Z,8.60
2023-11-08T16:13:05.835Z,8.59
2023-11-08T16:15:37.166Z,8.59
2023-11-08T16:18:04.067Z,8.58
2023-11-08T16:20:31.808Z,8.56
2023-11-08T16:22:58.342Z,8.54
2023-11-08T16:25:27.676Z,8.51
2023-11-08T16:27:57.764Z,8.51
2023-11-08T16:30:59.506Z,8.49
2023-11-08T16:33:13.959Z,8.48
2023-11-08T16:35:40.587Z,8.47
2023-11-08T16:38:09.865Z,8.47
2023-11-08T16:40:36.547Z,8.46
2023-11-08T16:43:05.676Z,8.47
2023-11-08T16:45:32.215Z,8.47
2023-11-08T16:47:59.672Z,8.47
2023-11-08T16:50:26.618Z,8.48
2023-11-08T16:52:55.561Z,8.48
2023-11-08T16:55:22.218Z,8.48
2023-11-08T16:57:50.428Z,8.48
2023-11-08T17:00:22.776Z,8.49
2023-11-08T17:02:54.607Z,8.49
2023-11-08T17:05:23.568Z,8.49
2023-11-08T17:07:52.464Z,8.51
2023-11-08T17:10:19.897Z,8.53
2023-11-08T17:12:46.541Z,8.53
2023-11-08T17:15:16.128Z,8.56
2023-11-08T17:17:45.053Z,8.58
2023-11-08T17:20:12.249Z,8.58
2023-11-08T17:22:38.822Z,8.60
2023-11-08T17:25:05.754Z,8.60
2023-11-08T17:27:37.577Z,8.62
2023-11-08T17:30:05.793Z,8.63
2023-11-08T17:32:33.809Z,8.65
2023-11-08T17:35:05.111Z,8.67
2023-11-08T17:37:33.089Z,8.67
2023-11-08T17:40:00.428Z,8.68
2023-11-08T17:42:27.507Z,8.69
2023-11-08T17:44:54.269Z,8.72
2023-11-08T17:47:20.953Z,8.72
2023-11-08T17:49:49.862Z,8.72
2023-11-08T17:52:18.990Z,8.72
2023-11-08T17:54:45.837Z,8.73
2023-11-08T17:57:15.213Z,8.74
2023-11-08T17:59:47.061Z,8.75
2023-11-08T18:02:13.596Z,8.75
2023-11-08T18:04:43.559Z,8.76
2023-11-08T18:07:10.123Z,8.77
2023-11-08T18:09:36.683Z,8.78
2023-11-08T18:12:03.345Z,8.79
2023-11-08T18:14:33.569Z,8.80
2023-11-08T18:17:04.789Z,8.81
2023-11-08T18:19:31.717Z,8.81
2023-11-08T18:21:58.606Z,8.83
2023-11-08T18:24:25.832Z,8.84
2023-11-08T18:26:55.147Z,8.84
2023-11-08T18:29:23.027Z,8.85
2023-11-08T18:31:52.225Z,8.86
2023-11-08T18:34:18.911Z,8.88
2023-11-08T18:36:47.969Z,8.91
2023-11-08T18:39:19.405Z,8.92
2023-11-08T18:41:45.940Z,8.92
2023-11-08T18:44:12.620Z,8.94
2023-11-08T18:46:41.480Z,8.95
2023-11-08T18:49:13.082Z,8.98
2023-11-08T18:51:44.667Z,8.99
2023-11-08T18:54:11.629Z,9.00
2023-11-08T18:56:38.696Z,9.01
2023-11-08T18:59:07.573Z,9.01
2023-11-08T19:01:36.970Z,9.02
2023-11-08T19:04:06.995Z,9.03
2023-11-08T19:06:33.850Z,9.03
2023-11-08T19:09:02.774Z,9.05
2023-11-08T19:11:31.816Z,9.06
2023-11-08T19:13:58.299Z,9.07
2023-11-08T19:16:25.645Z,9.09
2023-11-08T19:18:54.516Z,9.09
2023-11-08T19:21:24.167Z,9.09
2023-11-08T19:23:52.425Z,9.09
2023-11-08T19:26:19.149Z,9.10
2023-11-08T19:28:49.018Z,9.12
2023-11-08T19:31:17.942Z,9.13
2023-11-08T19:33:47.071Z,9.14
2023-11-08T19:36:16.199Z,9.16
2023-11-08T19:38:45.368Z,9.15
2023-11-08T19:41:11.972Z,9.17
2023-11-08T19:43:40.880Z,9.19
2023-11-08T19:46:11.416Z,9.20
2023-11-08T19:48:38.285Z,9.22
2023-11-08T19:51:05.290Z,9.23
2023-11-08T19:53:31.876Z,9.24
2023-11-08T19:56:06.885Z,9.26
2023-11-08T19:58:33.720Z,9.25
2023-11-08T20:01:00.571Z,9.26
2023-11-08T20:03:27.198Z,9.26
2023-11-08T20:05:55.903Z,9.27
2023-11-08T20:08:27.701Z,9.29
2023-11-08T20:10:59.095Z,9.30
2023-11-08T20:13:28.099Z,9.31
2023-11-08T20:15:56.956Z,9.32
2023-11-08T20:18:23.831Z,9.32
2023-11-08T20:20:51.680Z,9.33
2023-11-08T20:23:18.694Z,9.33
2023-11-08T20:25:45.257Z,9.34
2023-11-08T20:28:11.878Z,9.34
2023-11-08T20:30:38.542Z,9.35
2023-11-08T20:33:06.850Z,9.36
2023-11-08T20:35:33.784Z,9.36
2023-11-08T20:38:00.370Z,9.37
2023-11-08T20:40:29.218Z,9.38
2023-11-08T20:42:58.265Z,9.39
2023-11-08T20:45:27.685Z,9.40
2023-11-08T20:47:54.257Z,9.41
2023-11-08T20:50:23.023Z,9.42
2023-11-08T20:52:52.561Z,9.42
2023-11-08T20:55:19.597Z,9.44
2023-11-08T20:57:46.237Z,9.43
2023-11-08T21:00:13.936Z,9.46
2023-11-08T21:02:43.724Z,9.45
2023-11-08T21:05:13.546Z,9.46
2023-11-08T21:07:41.164Z,9.46
2023-11-08T21:10:09.493Z,9.47
2023-11-08T21:12:39.453Z,9.47
2023-11-08T21:15:09.259Z,9.48
2023-11-08T21:17:39.237Z,9.48
2023-11-08T21:20:10.444Z,9.51
2023-11-08T21:22:37.956Z,9.52
2023-11-08T21:25:07.661Z,9.52
2023-11-08T21:27:38.762Z,9.52
2023-11-08T21:30:13.504Z,9.54
2023-11-08T21:32:40.449Z,9.56
2023-11-08T21:35:07.423Z,9.56
2023-11-08T21:37:36.478Z,9.56
2023-11-08T21:40:07.639Z,9.57
2023-11-08T21:42:34.175Z,9.58
2023-11-08T21:45:04.819Z,9.60
2023-11-08T21:47:31.545Z,9.60
2023-11-08T21:50:04.359Z,9.60
2023-11-08T21:52:31.069Z,9.60
2023-11-08T21:55:02.407Z,9.61
2023-11-08T21:57:28.936Z,9.62
2023-11-08T21:59:55.410Z,9.62
2023-11-08T22:02:22.170Z,9.64
2023-11-08T22:04:48.766Z,9.63
2023-11-08T22:07:17.606Z,9.63
2023-11-08T22:09:49.113Z,9.64
2023-11-08T22:12:15.841Z,9.65
2023-11-08T22:14:42.353Z,9.66
2023-11-08T22:17:11.238Z,9.66
2023-11-08T22:19:37.831Z,9.67
2023-11-08T22:22:04.592Z,9.68
2023-11-08T22:24:34.039Z,9.68
2023-11-08T22:27:04.539Z,9.66
2023-11-08T22:29:31.064Z,9.65
2023-11-08T22:31:59.879Z,9.65
2023-11-08T22:34:28.925Z,9.66
2023-11-08T22:36:55.508Z,9.65
2023-11-08T22:39:24.288Z,9.67
2023-11-08T22:41:54.003Z,9.67
2023-11-08T22:44:23.000Z,9.67
2023-11-08T22:46:55.537Z,9.66
2023-11-08T22:49:22.108Z,9.68
2023-11-08T22:51:48.826Z,9.68
2023-11-08T22:54:15.537Z,9.68
2023-11-08T22:56:44.672Z,9.69
2023-11-08T22:59:13.469Z,9.70
2023-11-08T23:01:42.232Z,9.69
2023-11-08T23:04:11.399Z,9.68
2023-11-08T23:06:40.459Z,9.70
2023-11-08T23:09:09.350Z,9.69
2023-11-08T23:11:38.119Z,9.69
2023-11-08T23:14:08.477Z,9.68
2023-11-08T23:16:41.003Z,9.69
2023-11-08T23:19:10.306Z,9.70
2023-11-08T23:21:36.830Z,9.69
2023-11-08T23:24:05.705Z,9.69
2023-11-08T23:26:32.262Z,9.70
2023-11-08T23:29:01.569Z,9.70
2023-11-08T23:31:28.088Z,9.70
2023-11-08T23:33:59.568Z,9.70
2023-11-08T23:36:28.522Z,9.71
2023-11-08T23:38:55.194Z,9.70
2023-11-08T23:41:24.469Z,9.72
2023-11-08T23:43:55.644Z,9.71
2023-11-08T23:46:24.823Z,9.74
2023-11-08T23:48:52.072Z,9.73
2023-11-08T23:51:21.143Z,9.73
2023-11-08T23:53:50.018Z,9.72
2023-11-08T23:56:19.142Z,9.72
2023-11-08T23:58:46.300Z,9.72
